Abu Dhabi, UAE

4:37 PM GST on July 30, 2016 (GMT +0400)
Abu Dhabi International | | Change Station

Elev 89 ft 24.43 °N, 54.65 °E | Updated 37 minutes ago

Clear
Clear
104 °F
Feels Like 110 °F
N
17
Wind Variable Wind from NW

Today
High -- | Low -- °F
--% Chance of Precip.
Yesterday
High -- | Low -- °F
Precip. -- in
Pressure 29.44 in
Visibility 5.6 miles
Clouds
Heat Index 110 °F
Dew Point 68 °F
Humidity 31%
Rainfall 0.00 in
Snow Depth Not available.
5:49 AM 7:06 PM
Waning Crescent, 13% visible
METAR OMAA 301200Z 31015KT 9000 NSC 40/20 Q0997 NOSIG
Pressure 29.44 in
Visibility 5.6 miles
Clouds
Heat Index 110 °F
Dew Point 68 °F
Humidity 31%
Rainfall 0.00 in
Snow Depth Not available.
5:49 AM 7:06 PM
Waning Crescent, 13% visible
METAR OMAA 301200Z 31015KT 9000 NSC 40/20 Q0997 NOSIG

10-Day Weather Forecast

No radar image for this location.
×

Almanac

Astronomy

Jul. 30, 2016 Rise Set
Actual Time
Civil Twilight
Nautical Twilight
Astronomical Twilight
Moon
Length of Visible Light
Length of Day
Tomorrow will be .
, % of the Moon is Illuminated

Today's Extremes

Country Highs Country Lows

Community

WunderPhotos

Upload Photos

1,928,544 photos uploaded!

WunderBlog® & News

Nearby

Air Quality

  Air Quality AQ Index Pollutant
Not available.

Snow Depth

Station Depth Elevation

Earthquake Activity

City Distance Mag. Time & Date
Minimum magnitude displayed is 2.5.

Coastal Water Temperatures

Place Temperature

Stations

Nearby Weather Stations

Station Location Temp. Windchill Dew Point Humidity Wind Precip. Elev Updated Type